createdAt,value
2017-11-07T00:01:51.628Z,100.00
2017-11-07T00:04:19.984Z,100.00
2017-11-07T00:06:48.342Z,100.00
2017-11-07T00:09:16.718Z,100.00
2017-11-07T00:11:45.069Z,100.00
2017-11-07T00:14:13.420Z,100.00
2017-11-07T00:16:41.837Z,100.00
2017-11-07T00:19:10.187Z,100.00
2017-11-07T00:21:38.547Z,100.00
2017-11-07T00:24:06.902Z,100.00
2017-11-07T00:26:35.241Z,100.00
2017-11-07T00:29:03.599Z,100.00
2017-11-07T00:31:31.975Z,100.00
2017-11-07T00:34:00.324Z,100.00
2017-11-07T00:36:29.600Z,100.00
2017-11-07T00:38:57.955Z,100.00
2017-11-07T00:41:26.304Z,100.00
2017-11-07T00:43:54.672Z,100.00
2017-11-07T00:46:23.029Z,100.00
2017-11-07T00:48:51.392Z,100.00
2017-11-07T00:51:19.770Z,100.00
2017-11-07T00:53:48.119Z,100.00
2017-11-07T00:56:16.486Z,100.00
2017-11-07T00:58:44.846Z,100.00
2017-11-07T01:01:13.257Z,100.00
2017-11-07T01:03:41.606Z,100.00
2017-11-07T01:06:09.954Z,100.00
2017-11-07T01:08:38.339Z,100.00
2017-11-07T01:11:06.689Z,100.00
2017-11-07T01:13:35.082Z,100.00
2017-11-07T01:16:03.434Z,100.00
2017-11-07T01:18:31.801Z,100.00
2017-11-07T01:21:00.290Z,100.00
2017-11-07T01:23:28.633Z,100.00
2017-11-07T01:25:56.982Z,100.00
2017-11-07T01:28:25.355Z,100.00
2017-11-07T01:30:53.719Z,100.00
2017-11-07T01:33:22.104Z,100.00
2017-11-07T01:35:50.455Z,100.00
2017-11-07T01:38:18.939Z,100.00
2017-11-07T01:40:47.295Z,100.00
2017-11-07T01:43:15.637Z,100.00
2017-11-07T01:45:44.037Z,100.00
2017-11-07T01:48:12.398Z,100.00
2017-11-07T01:50:40.786Z,100.00
2017-11-07T01:53:09.151Z,100.00
2017-11-07T01:55:37.642Z,100.00
2017-11-07T01:58:05.991Z,100.00
2017-11-07T02:00:34.347Z,100.00
2017-11-07T02:03:02.750Z,100.00
2017-11-07T02:05:31.116Z,100.00
2017-11-07T02:07:59.510Z,100.00
2017-11-07T02:10:27.865Z,100.00
2017-11-07T02:12:56.203Z,100.00
2017-11-07T02:15:24.592Z,100.00
2017-11-07T02:17:52.930Z,100.00
2017-11-07T02:20:21.274Z,100.00
2017-11-07T02:22:49.667Z,100.00
2017-11-07T02:25:18.044Z,100.00
2017-11-07T02:27:46.436Z,100.00
2017-11-07T02:30:14.793Z,100.00
2017-11-07T02:32:43.171Z,100.00
2017-11-07T02:35:11.532Z,100.00
2017-11-07T02:37:39.917Z,100.00
2017-11-07T02:40:08.287Z,100.00
2017-11-07T02:42:36.651Z,100.00
2017-11-07T02:45:05.030Z,100.00
2017-11-07T02:47:33.403Z,100.00
2017-11-07T02:50:01.762Z,100.00
2017-11-07T02:52:30.146Z,100.00
2017-11-07T02:54:58.518Z,100.00
2017-11-07T02:57:27.002Z,100.00
2017-11-07T02:59:55.361Z,100.00
2017-11-07T03:02:23.710Z,100.00
2017-11-07T03:04:52.094Z,100.00
2017-11-07T03:07:20.450Z,100.00
2017-11-07T03:09:48.831Z,100.00
2017-11-07T03:12:17.212Z,100.00
2017-11-07T03:14:45.602Z,100.00
2017-11-07T03:17:13.946Z,100.00
2017-11-07T03:19:42.286Z,100.00
2017-11-07T03:22:10.632Z,100.00
2017-11-07T03:24:38.991Z,100.00
2017-11-07T03:27:07.372Z,100.00
2017-11-07T03:29:35.729Z,100.00
2017-11-07T03:32:04.962Z,100.00
2017-11-07T03:34:33.322Z,100.00
2017-11-07T03:37:01.673Z,100.00
2017-11-07T03:39:30.044Z,100.00
2017-11-07T03:41:58.386Z,100.00
2017-11-07T03:44:26.750Z,100.00
2017-11-07T03:46:55.108Z,100.00
2017-11-07T03:49:23.450Z,100.00
2017-11-07T03:51:51.811Z,100.00
2017-11-07T03:54:20.170Z,100.00
2017-11-07T03:56:48.532Z,100.00
2017-11-07T03:59:16.882Z,100.00
2017-11-07T04:01:45.377Z,100.00
2017-11-07T04:04:13.727Z,100.00
2017-11-07T04:06:42.101Z,100.00
2017-11-07T04:09:10.479Z,100.00
2017-11-07T04:11:38.818Z,100.00
2017-11-07T04:14:07.196Z,100.00
2017-11-07T04:16:35.581Z,100.00
2017-11-07T04:19:03.935Z,100.00
2017-11-07T04:21:32.310Z,100.00
2017-11-07T04:24:02.899Z,100.00
2017-11-07T04:26:31.726Z,100.00
2017-11-07T04:29:00.066Z,100.00
2017-11-07T04:31:28.403Z,100.00
2017-11-07T04:33:56.765Z,100.00
2017-11-07T04:36:25.121Z,100.00
2017-11-07T04:38:53.474Z,100.00
2017-11-07T04:41:21.819Z,100.00
2017-11-07T04:43:50.427Z,100.00
2017-11-07T04:46:18.783Z,100.00
2017-11-07T04:48:47.141Z,100.00
2017-11-07T04:51:15.496Z,100.00
2017-11-07T04:53:43.858Z,100.00
2017-11-07T04:56:12.208Z,100.00
2017-11-07T04:58:40.572Z,100.00
2017-11-07T05:01:08.925Z,100.00
2017-11-07T05:03:37.274Z,100.00
2017-11-07T05:06:05.625Z,100.00
2017-11-07T05:08:33.993Z,100.00
2017-11-07T05:11:02.354Z,100.00
2017-11-07T05:13:30.727Z,100.00
2017-11-07T05:15:59.079Z,100.00
2017-11-07T05:18:27.431Z,100.00
2017-11-07T05:20:55.783Z,100.00
2017-11-07T05:23:24.162Z,100.00
2017-11-07T05:25:52.551Z,100.00
2017-11-07T05:28:20.904Z,100.00
2017-11-07T05:30:49.262Z,100.00
2017-11-07T05:33:17.614Z,100.00
2017-11-07T05:35:45.962Z,100.00
2017-11-07T05:38:14.325Z,100.00
2017-11-07T05:40:42.690Z,100.00
2017-11-07T05:43:11.057Z,100.00
2017-11-07T05:45:39.412Z,100.00
2017-11-07T05:48:07.934Z,100.00
2017-11-07T05:50:36.283Z,100.00
2017-11-07T05:53:04.629Z,100.00
2017-11-07T05:55:32.990Z,100.00
2017-11-07T05:58:01.352Z,100.00
2017-11-07T06:00:29.699Z,100.00
2017-11-07T06:02:58.047Z,100.00
2017-11-07T06:05:26.393Z,100.00
2017-11-07T06:07:54.792Z,100.00
2017-11-07T06:10:23.132Z,100.00
2017-11-07T06:12:51.480Z,100.00
2017-11-07T06:15:19.846Z,100.00
2017-11-07T06:17:48.213Z,100.00
2017-11-07T06:20:16.583Z,100.00
2017-11-07T06:22:44.953Z,100.00
2017-11-07T06:25:13.318Z,100.00
2017-11-07T06:27:41.650Z,100.00
2017-11-07T06:30:09.999Z,100.00
2017-11-07T06:32:38.368Z,100.00
2017-11-07T06:35:06.735Z,100.00
2017-11-07T06:37:35.079Z,100.00
2017-11-07T06:40:03.463Z,100.00
2017-11-07T06:42:31.818Z,100.00
2017-11-07T06:45:00.204Z,100.00
2017-11-07T06:47:28.913Z,100.00
2017-11-07T06:49:57.258Z,100.00
2017-11-07T06:52:25.632Z,100.00
2017-11-07T06:54:54.031Z,100.00
2017-11-07T06:57:22.395Z,100.00
2017-11-07T06:59:50.786Z,100.00
2017-11-07T07:02:19.155Z,100.00
2017-11-07T07:04:47.502Z,100.00
2017-11-07T07:07:15.847Z,100.00
2017-11-07T07:09:44.231Z,100.00
2017-11-07T07:12:12.574Z,100.00
2017-11-07T07:14:40.962Z,100.00
2017-11-07T07:17:09.312Z,100.00
2017-11-07T07:19:37.658Z,100.00
2017-11-07T07:22:06.031Z,100.00
2017-11-07T07:24:34.379Z,100.00
2017-11-07T07:27:02.754Z,100.00
2017-11-07T07:29:31.118Z,100.00
2017-11-07T07:31:59.676Z,100.00
2017-11-07T07:34:28.180Z,99.79
2017-11-07T07:36:56.859Z,99.06
2017-11-07T07:39:25.315Z,98.92
2017-11-07T07:41:53.684Z,98.30
2017-11-07T07:44:22.025Z,98.09
2017-11-07T07:46:50.374Z,97.60
2017-11-07T07:49:18.737Z,97.74
2017-11-07T07:51:47.098Z,98.31
2017-11-07T07:54:15.450Z,98.82
2017-11-07T07:56:43.832Z,99.36
2017-11-07T07:59:12.158Z,99.30
2017-11-07T08:01:40.542Z,100.00
2017-11-07T08:04:08.894Z,100.00
2017-11-07T08:06:37.261Z,100.00
2017-11-07T08:09:05.629Z,100.00
2017-11-07T08:11:33.963Z,100.00
2017-11-07T08:14:02.343Z,100.00
2017-11-07T08:16:30.914Z,100.00
2017-11-07T08:18:59.507Z,100.00
2017-11-07T08:21:27.886Z,100.00
2017-11-07T08:23:56.254Z,100.00
2017-11-07T08:26:24.853Z,100.00
2017-11-07T08:28:53.464Z,100.00
2017-11-07T08:31:21.819Z,100.00
2017-11-07T08:33:50.187Z,100.00
2017-11-07T08:36:18.579Z,100.00
2017-11-07T08:38:47.286Z,100.00
2017-11-07T08:41:15.660Z,100.00
2017-11-07T08:43:44.122Z,100.00
2017-11-07T08:46:12.735Z,100.00
2017-11-07T08:48:41.211Z,100.00
2017-11-07T08:51:09.679Z,100.00
2017-11-07T08:53:38.334Z,100.00
2017-11-07T08:56:06.983Z,100.00
2017-11-07T08:58:35.447Z,100.00
2017-11-07T09:01:03.812Z,100.00
2017-11-07T09:03:32.193Z,100.00
2017-11-07T09:06:00.539Z,100.00
2017-11-07T09:08:28.909Z,100.00
2017-11-07T09:10:57.312Z,100.00
2017-11-07T09:13:25.766Z,100.00
2017-11-07T09:15:54.122Z,100.00
2017-11-07T09:18:22.479Z,100.00
2017-11-07T09:20:50.827Z,100.00
2017-11-07T09:23:19.188Z,100.00
2017-11-07T09:25:47.567Z,100.00
2017-11-07T09:28:15.925Z,100.00
2017-11-07T09:30:44.304Z,100.00
2017-11-07T09:33:12.686Z,100.00
2017-11-07T09:35:41.047Z,100.00
2017-11-07T09:38:09.410Z,100.00
2017-11-07T09:40:37.767Z,100.00
2017-11-07T09:43:06.147Z,100.00
2017-11-07T09:45:34.524Z,100.00
2017-11-07T09:48:02.873Z,100.00
2017-11-07T09:50:31.249Z,100.00
2017-11-07T09:52:59.626Z,100.00
2017-11-07T09:55:27.976Z,100.00
2017-11-07T09:57:56.358Z,100.00
2017-11-07T10:00:24.712Z,100.00
2017-11-07T10:02:53.066Z,100.00
2017-11-07T10:05:21.420Z,100.00
2017-11-07T10:07:49.792Z,100.00
2017-11-07T10:10:18.158Z,100.00
2017-11-07T10:12:46.515Z,100.00
2017-11-07T10:15:14.869Z,100.00
2017-11-07T10:17:43.215Z,100.00
2017-11-07T10:20:11.631Z,100.00
2017-11-07T10:22:39.986Z,100.00
2017-11-07T10:25:08.334Z,100.00
2017-11-07T10:27:36.720Z,100.00
2017-11-07T10:30:05.075Z,100.00
2017-11-07T10:32:33.466Z,100.00
2017-11-07T10:35:01.846Z,100.00
2017-11-07T10:37:30.210Z,100.00
2017-11-07T10:39:58.567Z,100.00
2017-11-07T10:42:26.934Z,100.00
2017-11-07T10:44:55.300Z,100.00
2017-11-07T10:47:23.674Z,100.00
2017-11-07T10:49:52.042Z,100.00
2017-11-07T10:52:20.382Z,100.00
2017-11-07T10:54:48.762Z,100.00
2017-11-07T10:57:17.116Z,100.00
2017-11-07T10:59:45.486Z,100.00
2017-11-07T11:02:13.874Z,100.00
2017-11-07T11:04:42.284Z,100.00
2017-11-07T11:07:10.652Z,100.00
2017-11-07T11:09:39.064Z,100.00
2017-11-07T11:12:07.417Z,100.00
2017-11-07T11:14:35.762Z,100.00
2017-11-07T11:17:04.155Z,100.00
2017-11-07T11:19:32.523Z,100.00
2017-11-07T11:22:00.911Z,100.00
2017-11-07T11:24:29.276Z,100.00
2017-11-07T11:26:57.720Z,100.00
2017-11-07T11:29:26.112Z,100.00
2017-11-07T11:31:55.414Z,100.00
2017-11-07T11:34:23.751Z,100.00
2017-11-07T11:36:52.114Z,100.00
2017-11-07T11:39:20.460Z,100.00
2017-11-07T11:41:48.818Z,100.00
2017-11-07T11:44:17.162Z,100.00
2017-11-07T11:46:45.555Z,100.00
2017-11-07T11:49:13.904Z,100.00
2017-11-07T11:51:42.284Z,100.00
2017-11-07T11:54:10.630Z,100.00
2017-11-07T11:56:39.061Z,100.00
2017-11-07T11:59:07.411Z,100.00
2017-11-07T12:01:35.767Z,100.00
2017-11-07T12:04:04.168Z,100.00
2017-11-07T12:06:32.511Z,100.00
2017-11-07T12:09:00.863Z,100.00
2017-11-07T12:11:29.235Z,100.00
2017-11-07T12:13:57.583Z,100.00
2017-11-07T12:16:25.964Z,100.00
2017-11-07T12:18:54.308Z,100.00
2017-11-07T12:21:22.678Z,100.00
2017-11-07T12:23:51.028Z,100.00
2017-11-07T12:26:19.378Z,100.00
2017-11-07T12:28:47.780Z,100.00
2017-11-07T12:31:16.141Z,100.00
2017-11-07T12:33:44.518Z,100.00
2017-11-07T12:36:12.868Z,100.00
2017-11-07T12:38:41.225Z,100.00
2017-11-07T12:41:09.612Z,100.00
2017-11-07T12:43:37.969Z,100.00
2017-11-07T12:46:06.343Z,100.00
2017-11-07T12:48:34.745Z,100.00
2017-11-07T12:51:14.986Z,100.00
2017-11-07T12:53:43.326Z,100.00
2017-11-07T12:56:11.704Z,100.00
2017-11-07T12:58:40.063Z,100.00
2017-11-07T13:01:08.456Z,100.00
2017-11-07T13:03:36.810Z,100.00
2017-11-07T13:06:05.213Z,100.00
2017-11-07T13:08:33.777Z,100.00
2017-11-07T13:11:02.148Z,100.00
2017-11-07T13:13:30.652Z,100.00
2017-11-07T13:15:59.004Z,100.00
2017-11-07T13:18:27.400Z,100.00
2017-11-07T13:20:55.842Z,100.00
2017-11-07T13:23:24.217Z,100.00
2017-11-07T13:25:52.563Z,100.00
2017-11-07T13:28:21.006Z,100.00
2017-11-07T13:30:49.354Z,100.00
2017-11-07T13:33:17.735Z,100.00
2017-11-07T13:35:46.090Z,100.00
2017-11-07T13:38:14.446Z,100.00
2017-11-07T13:40:42.816Z,100.00
2017-11-07T13:43:11.175Z,100.00
2017-11-07T13:45:39.550Z,100.00
2017-11-07T13:48:07.933Z,100.00
2017-11-07T13:50:36.296Z,100.00
2017-11-07T13:53:04.685Z,100.00
2017-11-07T13:55:33.089Z,100.00
2017-11-07T13:58:07.947Z,100.00
2017-11-07T14:00:36.290Z,100.00
2017-11-07T14:03:04.670Z,100.00
2017-11-07T14:05:33.030Z,100.00
2017-11-07T14:08:01.402Z,100.00
2017-11-07T14:10:29.776Z,100.00
2017-11-07T14:12:58.126Z,100.00
2017-11-07T14:15:26.475Z,100.00
2017-11-07T14:17:54.840Z,100.00
2017-11-07T14:20:23.198Z,100.00
2017-11-07T14:22:51.547Z,100.00
2017-11-07T14:25:19.898Z,100.00
2017-11-07T14:27:48.247Z,100.00
2017-11-07T14:30:16.655Z,100.00
2017-11-07T14:32:45.027Z,100.00
2017-11-07T14:35:13.376Z,100.00
2017-11-07T14:37:41.718Z,100.00
2017-11-07T14:40:10.099Z,100.00
2017-11-07T14:42:38.510Z,100.00
2017-11-07T14:45:06.867Z,100.00
2017-11-07T14:47:35.256Z,100.00
2017-11-07T14:50:03.612Z,100.00
2017-11-07T14:52:31.980Z,100.00
2017-11-07T14:55:00.357Z,100.00
2017-11-07T14:57:28.707Z,100.00
2017-11-07T14:59:57.087Z,100.00
2017-11-07T15:02:25.432Z,100.00
2017-11-07T15:04:53.798Z,100.00
2017-11-07T15:07:22.157Z,100.00
2017-11-07T15:12:15.103Z,100.00
2017-11-07T15:14:43.479Z,100.00
2017-11-07T15:17:11.833Z,100.00
2017-11-07T15:19:40.463Z,100.00
2017-11-07T15:22:10.102Z,100.00
2017-11-07T15:24:38.519Z,100.00
2017-11-07T15:27:06.895Z,100.00
2017-11-07T15:29:35.254Z,100.00
2017-11-07T15:32:03.668Z,100.00
2017-11-07T15:34:32.087Z,100.00
2017-11-07T15:37:03.152Z,100.00
2017-11-07T15:39:31.505Z,100.00
2017-11-07T15:41:59.891Z,100.00
2017-11-07T15:44:28.242Z,100.00
2017-11-07T15:46:56.591Z,100.00
2017-11-07T15:49:24.939Z,100.00
2017-11-07T15:51:53.322Z,100.00
2017-11-07T15:54:21.689Z,100.00
2017-11-07T15:56:50.432Z,100.00
2017-11-07T15:59:18.845Z,100.00
2017-11-07T16:01:47.310Z,100.00
2017-11-07T16:04:15.711Z,100.00
2017-11-07T16:06:44.204Z,100.00
2017-11-07T16:09:12.769Z,100.00
2017-11-07T16:11:41.148Z,100.00
2017-11-07T16:14:09.500Z,100.00
2017-11-07T16:16:37.856Z,100.00
2017-11-07T16:19:06.235Z,100.00
2017-11-07T16:21:34.712Z,100.00
2017-11-07T16:24:03.135Z,100.00
2017-11-07T16:26:31.478Z,100.00
2017-11-07T16:29:00.040Z,100.00
2017-11-07T16:31:28.409Z,100.00
2017-11-07T16:33:56.775Z,100.00
2017-11-07T16:36:25.165Z,100.00
2017-11-07T16:38:53.548Z,100.00
2017-11-07T16:41:21.972Z,100.00
2017-11-07T16:43:50.361Z,100.00
2017-11-07T16:46:18.714Z,100.00
2017-11-07T16:48:47.071Z,100.00
2017-11-07T16:51:15.808Z,100.00
2017-11-07T16:53:44.208Z,100.00
2017-11-07T16:56:13.998Z,100.00
2017-11-07T16:58:42.355Z,100.00
2017-11-07T17:01:10.743Z,100.00
2017-11-07T17:03:39.146Z,100.00
2017-11-07T17:06:07.540Z,100.00
2017-11-07T17:08:36.004Z,100.00
2017-11-07T17:11:04.339Z,100.00
2017-11-07T17:13:32.705Z,100.00
2017-11-07T17:16:01.064Z,100.00
2017-11-07T17:18:29.439Z,100.00
2017-11-07T17:20:57.779Z,100.00
2017-11-07T17:23:26.161Z,100.00
2017-11-07T17:25:54.527Z,100.00
2017-11-07T17:28:22.911Z,100.00
2017-11-07T17:30:51.284Z,100.00
2017-11-07T17:33:19.666Z,100.00
2017-11-07T17:35:48.017Z,100.00
2017-11-07T17:38:16.406Z,100.00
2017-11-07T17:40:44.759Z,100.00
2017-11-07T17:43:13.116Z,100.00
2017-11-07T17:45:41.480Z,100.00
2017-11-07T17:48:09.851Z,100.00
2017-11-07T17:50:38.196Z,100.00
2017-11-07T17:53:06.592Z,100.00
2017-11-07T17:55:34.939Z,100.00
2017-11-07T17:58:03.321Z,100.00
2017-11-07T18:00:31.722Z,100.00
2017-11-07T18:03:00.102Z,100.00
2017-11-07T18:05:28.456Z,100.00
2017-11-07T18:07:56.814Z,100.00
2017-11-07T18:10:25.158Z,100.00
2017-11-07T18:12:53.544Z,100.00
2017-11-07T18:15:21.919Z,100.00
2017-11-07T18:17:50.260Z,100.00
2017-11-07T18:20:18.689Z,100.00
2017-11-07T18:22:47.060Z,100.00
2017-11-07T18:25:15.429Z,100.00
2017-11-07T18:27:43.804Z,100.00
2017-11-07T18:30:12.143Z,100.00
2017-11-07T18:32:40.495Z,100.00
2017-11-07T18:35:08.889Z,100.00
2017-11-07T18:37:37.243Z,100.00
2017-11-07T18:40:05.593Z,100.00
2017-11-07T18:42:33.947Z,100.00
2017-11-07T18:45:02.299Z,100.00
2017-11-07T18:47:30.694Z,100.00
2017-11-07T18:49:59.063Z,100.00
2017-11-07T18:52:27.467Z,100.00
2017-11-07T18:54:55.814Z,100.00
2017-11-07T18:57:24.163Z,100.00
2017-11-07T18:59:52.515Z,100.00
2017-11-07T19:02:20.896Z,100.00
2017-11-07T19:04:49.252Z,100.00
2017-11-07T19:07:17.596Z,100.00
2017-11-07T19:09:45.944Z,100.00
2017-11-07T19:12:20.738Z,100.00
2017-11-07T19:14:49.126Z,100.00
2017-11-07T19:17:17.483Z,100.00
2017-11-07T19:19:45.875Z,100.00
2017-11-07T19:22:14.228Z,100.00
2017-11-07T19:24:42.599Z,100.00
2017-11-07T19:27:10.959Z,100.00
2017-11-07T19:29:39.359Z,100.00
2017-11-07T19:32:07.977Z,100.00
2017-11-07T19:34:36.371Z,100.00
2017-11-07T19:37:04.785Z,100.00
2017-11-07T19:39:33.130Z,100.00
2017-11-07T19:42:01.531Z,100.00
2017-11-07T19:44:29.927Z,100.00
2017-11-07T19:46:58.316Z,100.00
2017-11-07T19:49:26.690Z,100.00
2017-11-07T19:51:55.084Z,100.00
2017-11-07T19:54:23.480Z,100.00
2017-11-07T19:56:51.836Z,100.00
2017-11-07T19:59:20.210Z,100.00
2017-11-07T20:01:48.574Z,100.00
2017-11-07T20:04:16.922Z,100.00
2017-11-07T20:06:45.310Z,100.00
2017-11-07T20:09:15.600Z,100.00
2017-11-07T20:11:43.975Z,100.00
2017-11-07T20:14:12.330Z,100.00
2017-11-07T20:16:40.712Z,100.00
2017-11-07T20:19:09.059Z,100.00
2017-11-07T20:21:37.743Z,100.00
2017-11-07T20:24:06.214Z,100.00
2017-11-07T20:26:34.672Z,100.00
2017-11-07T20:29:03.023Z,100.00
2017-11-07T20:31:31.419Z,100.00
2017-11-07T20:33:59.773Z,100.00
2017-11-07T20:36:28.426Z,100.00
2017-11-07T20:38:56.913Z,100.00
2017-11-07T20:41:25.303Z,100.00
2017-11-07T20:43:53.684Z,100.00
2017-11-07T20:46:22.039Z,100.00
2017-11-07T20:48:50.414Z,100.00
2017-11-07T20:51:18.764Z,100.00
2017-11-07T20:53:47.131Z,100.00
2017-11-07T20:56:15.503Z,100.00
2017-11-07T20:58:43.971Z,100.00
2017-11-07T21:01:12.347Z,100.00
2017-11-07T21:03:40.708Z,100.00
2017-11-07T21:06:09.062Z,100.00
2017-11-07T21:08:37.406Z,100.00
2017-11-07T21:11:05.792Z,100.00
2017-11-07T21:13:34.187Z,100.00
2017-11-07T21:16:02.546Z,100.00
2017-11-07T21:18:30.894Z,100.00
2017-11-07T21:20:59.268Z,100.00
2017-11-07T21:23:27.632Z,100.00
2017-11-07T21:25:56.032Z,100.00
2017-11-07T21:28:24.385Z,100.00
2017-11-07T21:30:52.761Z,100.00
2017-11-07T21:33:21.964Z,100.00
2017-11-07T21:35:50.311Z,100.00
2017-11-07T21:38:21.484Z,100.00
2017-11-07T21:40:49.835Z,100.00
2017-11-07T21:43:18.217Z,100.00
2017-11-07T21:45:46.580Z,100.00
2017-11-07T21:48:14.969Z,100.00
2017-11-07T21:50:43.389Z,100.00
2017-11-07T21:53:11.738Z,100.00
2017-11-07T21:55:40.121Z,100.00
2017-11-07T21:58:08.469Z,100.00
2017-11-07T22:00:36.848Z,100.00
2017-11-07T22:03:05.205Z,100.00
2017-11-07T22:05:33.588Z,100.00
2017-11-07T22:08:01.945Z,100.00
2017-11-07T22:10:30.333Z,100.00
2017-11-07T22:12:58.680Z,100.00
2017-11-07T22:15:27.029Z,100.00
2017-11-07T22:18:10.999Z,100.00
2017-11-07T22:20:40.270Z,100.00
2017-11-07T22:23:14.109Z,100.00
2017-11-07T22:25:44.411Z,100.00
2017-11-07T22:28:12.791Z,100.00
2017-11-07T22:33:16.644Z,100.00
2017-11-07T22:35:45.055Z,100.00
2017-11-07T22:38:13.415Z,100.00
2017-11-07T22:40:41.756Z,100.00
2017-11-07T22:43:10.133Z,100.00
2017-11-07T22:45:38.479Z,100.00
2017-11-07T22:48:06.861Z,100.00
2017-11-07T22:50:35.207Z,100.00
2017-11-07T22:53:03.578Z,100.00
2017-11-07T22:55:31.928Z,100.00
2017-11-07T22:58:00.292Z,100.00
2017-11-07T23:00:28.666Z,100.00
2017-11-07T23:02:57.010Z,100.00
2017-11-07T23:05:25.372Z,100.00
2017-11-07T23:07:53.765Z,100.00
2017-11-07T23:10:22.134Z,100.00
2017-11-07T23:12:50.515Z,100.00
2017-11-07T23:15:18.859Z,100.00
2017-11-07T23:17:47.207Z,100.00
2017-11-07T23:20:15.558Z,100.00
2017-11-07T23:22:43.915Z,100.00
2017-11-07T23:25:12.288Z,100.00
2017-11-07T23:27:40.655Z,100.00
2017-11-07T23:30:09.053Z,100.00
2017-11-07T23:32:37.444Z,100.00
2017-11-07T23:35:05.812Z,100.00
2017-11-07T23:37:34.165Z,100.00
2017-11-07T23:40:02.517Z,100.00
2017-11-07T23:42:30.871Z,100.00
2017-11-07T23:44:59.351Z,100.00
2017-11-07T23:47:27.717Z,100.00
2017-11-07T23:49:56.063Z,100.00
2017-11-07T23:52:24.402Z,100.00
2017-11-07T23:54:52.801Z,100.00
2017-11-07T23:57:21.157Z,100.00
2017-11-07T23:59:49.542Z,100.00
